Time;durP1;ratioP1;P1;durP2;ratioP2;P2;SDS_P1;SDS_P2;PMS_P1;PMS_P2;Temp;Humidity;BMP_temperature;BMP_pressure;BME280_temperature;BME280_humidity;BME280_pressure;Samples;Min_cycle;Max_cycle;Signal;HPM_P1;HPM_P2
2021/08/31 00:00:04;;;;;;;23.55;9.77;;;;;;;17.13;80.07;101779.19;5055644;28;20045;-65
2021/08/31 00:02:31;;;;;;;21.75;9.10;;;;;;;17.27;79.66;101771.44;5038175;28;20084;-64
2021/08/31 00:04:58;;;;;;;23.02;10.02;;;;;;;17.46;78.48;101777.47;5055161;28;20060;-64
2021/08/31 00:07:25;;;;;;;26.50;8.82;;;;;;;17.41;78.63;101772.03;5055422;28;20037;-64
2021/08/31 00:09:53;;;;;;;18.10;9.35;;;;;;;17.48;78.18;101780.72;5055813;28;20053;-63
2021/08/31 00:12:20;;;;;;;23.52;9.20;;;;;;;17.38;78.17;101785.81;5054602;28;20045;-66
2021/08/31 00:14:47;;;;;;;23.23;9.82;;;;;;;17.13;79.01;101775.56;5035598;28;20441;-64
2021/08/31 00:17:17;;;;;;;24.23;9.63;;;;;;;17.39;78.34;101779.09;5035217;28;20060;-64
2021/08/31 00:19:45;;;;;;;22.88;9.68;;;;;;;17.18;78.57;101781.78;5035502;28;20046;-63
2021/08/31 00:22:12;;;;;;;28.52;10.85;;;;;;;17.15;78.88;101778.84;5034995;28;20045;-64
2021/08/31 00:24:40;;;;;;;20.83;9.88;;;;;;;16.99;79.53;101761.84;5035525;28;20080;-64
2021/08/31 00:27:08;;;;;;;25.42;10.77;;;;;;;16.98;79.48;101768.56;5028258;28;20541;-64
2021/08/31 00:29:35;;;;;;;23.92;10.60;;;;;;;17.03;79.42;101773.97;5032449;28;20048;-64
2021/08/31 00:32:03;;;;;;;22.90;10.60;;;;;;;17.03;79.31;101771.19;5033478;28;20058;-63
2021/08/31 00:34:30;;;;;;;26.45;9.75;;;;;;;17.13;79.55;101770.81;5035028;28;20069;-63
2021/08/31 00:36:57;;;;;;;22.42;9.75;;;;;;;17.19;78.27;101771.47;5034814;28;20046;-65
2021/08/31 00:39:24;;;;;;;21.92;9.10;;;;;;;17.22;78.32;101768.84;5034518;28;20048;-65
2021/08/31 00:41:53;;;;;;;26.92;9.38;;;;;;;17.05;79.08;101768.88;5034904;28;20476;-65
2021/08/31 00:44:27;;;;;;;23.00;9.38;;;;;;;17.13;78.77;101773.59;5034691;28;20049;-65
2021/08/31 00:46:56;;;;;;;20.90;8.77;;;;;;;17.11;78.96;101789.81;5032471;28;20064;-65
2021/08/31 00:49:24;;;;;;;18.05;8.63;;;;;;;16.92;80.02;101766.28;5033802;28;20049;-64
2021/08/31 00:51:53;;;;;;;17.70;10.07;;;;;;;16.92;80.09;101778.25;5033526;28;20061;-65
2021/08/31 00:54:21;;;;;;;23.67;9.18;;;;;;;17.02;79.64;101771.50;5034594;28;20041;-64
2021/08/31 00:56:50;;;;;;;26.50;9.70;;;;;;;16.88;80.59;101768.09;5034664;28;20054;-64
2021/08/31 00:59:20;;;;;;;21.40;9.00;;;;;;;16.93;80.24;101763.16;5033399;28;20042;-64
2021/08/31 01:01:54;;;;;;;25.42;8.85;;;;;;;16.79;80.86;101770.88;5032954;28;20053;-63
2021/08/31 01:04:29;;;;;;;19.77;9.20;;;;;;;16.91;80.59;101761.88;5034647;28;20053;-65
2021/08/31 01:06:58;;;;;;;21.48;8.65;;;;;;;16.96;80.48;101782.00;5034496;28;20053;-65
2021/08/31 01:09:26;;;;;;;22.40;10.05;;;;;;;17.00;80.31;101768.25;5034539;28;20053;-65
2021/08/31 01:11:56;;;;;;;21.33;9.75;;;;;;;17.11;80.26;101775.91;5033139;28;20060;-65
2021/08/31 01:14:24;;;;;;;25.27;8.30;;;;;;;17.08;79.72;101772.97;5051050;28;20044;-64
2021/08/31 01:16:52;;;;;;;23.23;8.23;;;;;;;17.44;79.29;101773.31;5053920;28;20049;-64
2021/08/31 01:19:32;;;;;;;22.75;8.48;;;;;;;17.40;78.09;101781.53;5052840;28;20052;-64
2021/08/31 01:22:00;;;;;;;;;;;;;;;17.09;79.26;101780.97;5053588;28;20528;-64
2021/08/31 01:24:28;;;;;;;19.50;8.98;;;;;;;17.26;78.62;101788.47;5054399;28;20402;-64
2021/08/31 01:26:58;;;;;;;24.13;8.85;;;;;;;17.26;78.38;101778.13;5054064;28;20057;-65
2021/08/31 01:29:26;;;;;;;19.23;8.23;;;;;;;16.72;80.50;101784.47;5053965;28;20040;-64
2021/08/31 01:31:54;;;;;;;23.35;8.27;;;;;;;16.98;81.09;101782.47;5053946;28;20492;-65
2021/08/31 01:34:21;;;;;;;21.08;7.13;;;;;;;16.97;80.09;101783.63;5053387;28;20060;-64
2021/08/31 01:36:49;;;;;;;19.73;7.43;;;;;;;17.12;79.59;101779.50;5053765;28;20045;-65
2021/08/31 01:39:16;;;;;;;24.42;7.65;;;;;;;17.30;78.75;101784.69;5052467;28;20056;-64
2021/08/31 01:41:43;;;;;;;20.65;7.35;;;;;;;17.33;79.02;101777.66;5053768;28;20068;-64
2021/08/31 01:44:11;;;;;;;21.73;7.32;;;;;;;17.50;77.77;101784.00;5053725;28;20049;-64
2021/08/31 01:46:38;;;;;;;20.23;7.93;;;;;;;17.33;77.96;101786.00;5053471;28;20075;-64
2021/08/31 01:49:05;;;;;;;16.73;6.60;;;;;;;17.29;77.96;101787.81;5053439;28;20041;-65
2021/08/31 01:51:33;;;;;;;20.35;7.38;;;;;;;17.04;78.64;101786.72;5053547;28;20061;-65
2021/08/31 01:54:00;;;;;;;25.17;7.03;;;;;;;16.99;80.00;101786.91;5035988;28;20057;-65
2021/08/31 01:56:27;;;;;;;28.25;7.55;;;;;;;16.95;78.93;101791.50;5052221;28;20064;-65
2021/08/31 01:58:55;;;;;;;20.63;6.53;;;;;;;17.00;79.67;101787.72;5052096;28;20049;-65
2021/08/31 02:01:22;;;;;;;20.80;6.55;;;;;;;16.88;79.32;101790.38;5051083;28;20064;-66
2021/08/31 02:03:50;;;;;;;18.48;7.18;;;;;;;16.80;80.16;101789.22;5052545;28;20068;-64
2021/08/31 02:06:17;;;;;;;31.70;7.40;;;;;;;16.83;80.96;101788.56;5052279;28;20052;-64
2021/08/31 02:08:44;;;;;;;17.52;6.63;;;;;;;16.89;80.05;101790.03;5053518;28;20052;-65
2021/08/31 02:11:12;;;;;;;22.27;7.00;;;;;;;16.91;80.10;101790.53;5053627;28;20045;-64
2021/08/31 02:13:39;;;;;;;20.55;7.57;;;;;;;17.01;79.61;101786.56;5041848;28;20057;-64
2021/08/31 02:16:08;;;;;;;21.77;7.07;;;;;;;17.12;79.05;101782.28;5033506;28;20046;-64
2021/08/31 02:18:40;;;;;;;21.13;6.50;;;;;;;16.98;79.05;101792.81;5033235;28;20046;-65
2021/08/31 02:21:10;;;;;;;20.25;6.93;;;;;;;16.83;80.35;101791.34;5033557;28;20053;-64
2021/08/31 02:23:39;;;;;;;21.92;7.75;;;;;;;16.60;81.06;101782.38;5033456;28;20061;-64
2021/08/31 02:26:06;;;;;;;16.75;6.53;;;;;;;16.49;81.96;101792.16;5033555;28;20054;-64
2021/08/31 02:28:33;;;;;;;22.30;7.70;;;;;;;16.50;81.96;101793.81;5033731;28;20049;-64
2021/08/31 02:31:01;;;;;;;23.17;7.28;;;;;;;16.63;81.34;101787.25;5031481;28;20064;-64
2021/08/31 02:33:28;;;;;;;20.90;7.05;;;;;;;16.88;80.60;101795.94;5033304;28;20064;-65
2021/08/31 02:35:55;;;;;;;19.05;7.13;;;;;;;16.72;80.37;101790.88;5033292;28;20493;-63
2021/08/31 02:38:22;;;;;;;19.60;6.95;;;;;;;16.45;81.89;101796.75;5033026;28;20042;-64
2021/08/31 02:40:50;;;;;;;20.65;7.05;;;;;;;16.31;82.78;101786.91;5033511;28;20504;-65
2021/08/31 02:43:17;;;;;;;18.33;7.20;;;;;;;16.65;82.32;101787.75;5031954;28;20056;-65
2021/08/31 02:45:44;;;;;;;22.15;7.03;;;;;;;16.54;81.33;101785.66;5036812;28;20057;-65
2021/08/31 02:48:12;;;;;;;18.27;7.28;;;;;;;16.58;81.15;101784.66;5036909;28;20054;-66
2021/08/31 02:50:39;;;;;;;19.20;6.85;;;;;;;16.87;81.50;101783.97;5037685;28;20053;-65
2021/08/31 02:53:06;;;;;;;19.02;7.07;;;;;;;16.64;80.36;101777.78;5037717;28;20054;-66
2021/08/31 02:55:34;;;;;;;23.25;7.38;;;;;;;16.97;80.57;101780.03;5035525;28;20068;-64
2021/08/31 02:58:05;;;;;;;21.92;7.15;;;;;;;16.77;80.76;101779.56;5035291;28;20062;-65
2021/08/31 03:00:33;;;;;;;22.30;7.32;;;;;;;16.73;80.29;101770.25;5036685;28;20053;-64
2021/08/31 03:03:00;;;;;;;17.27;6.35;;;;;;;16.75;80.43;101781.84;5036968;28;20053;-64
2021/08/31 03:05:28;;;;;;;20.10;7.32;;;;;;;16.72;80.22;101767.78;5036890;28;20049;-64
2021/08/31 03:07:55;;;;;;;21.83;7.50;;;;;;;17.01;79.57;101773.47;5036748;28;20049;-65
2021/08/31 03:10:23;;;;;;;26.58;8.30;;;;;;;16.88;79.55;101771.69;5035691;28;20064;-65
2021/08/31 03:12:51;;;;;;;23.38;8.02;;;;;;;16.58;80.41;101769.94;5024522;28;20056;-65
2021/08/31 03:15:18;;;;;;;25.95;8.05;;;;;;;16.28;82.55;101776.44;5056692;28;20052;-65
2021/08/31 03:17:45;;;;;;;19.52;8.05;;;;;;;16.39;82.28;101772.19;5056789;28;20508;-64
2021/08/31 03:20:13;;;;;;;21.63;7.53;;;;;;;16.75;81.61;101779.06;5055385;28;20052;-65
2021/08/31 03:22:40;;;;;;;21.65;8.98;;;;;;;16.99;80.21;101772.16;5056636;28;20049;-65
2021/08/31 03:25:08;;;;;;;17.77;8.15;;;;;;;16.92;79.03;101777.41;5054889;28;20575;-65
2021/08/31 03:27:35;;;;;;;19.83;9.40;;;;;;;16.55;80.97;101779.75;5056250;28;20048;-65
2021/08/31 03:30:04;;;;;;;26.05;9.35;;;;;;;16.57;81.20;101779.41;5022443;28;20067;-60
2021/08/31 03:32:32;;;;;;;25.73;8.40;;;;;;;16.65;81.08;101778.59;5056513;28;20064;-60
2021/08/31 03:34:59;;;;;;;21.30;9.43;;;;;;;16.83;79.80;101778.25;5054831;28;20053;-60
2021/08/31 03:37:26;;;;;;;17.95;9.32;;;;;;;16.67;79.92;101784.63;5054975;28;20432;-60
2021/08/31 03:39:54;;;;;;;23.23;8.82;;;;;;;16.95;79.24;101782.31;5055001;28;20404;-59
2021/08/31 03:42:21;;;;;;;23.15;9.23;;;;;;;17.01;78.41;101779.03;5054543;28;20534;-61
2021/08/31 03:44:48;;;;;;;18.70;8.70;;;;;;;17.25;77.90;101793.22;5056002;28;20446;-59
2021/08/31 03:47:16;;;;;;;22.90;8.82;;;;;;;17.39;76.63;101788.28;5056288;28;20053;-59
2021/08/31 03:49:43;;;;;;;23.15;9.20;;;;;;;16.85;79.04;101794.63;5054441;28;20041;-61
2021/08/31 03:52:10;;;;;;;24.98;9.68;;;;;;;17.01;78.60;101790.19;5054795;28;20052;-60
2021/08/31 03:54:37;;;;;;;21.10;9.00;;;;;;;17.13;77.56;101793.09;5054752;28;20053;-61
2021/08/31 03:57:05;;;;;;;19.65;9.18;;;;;;;16.80;78.72;101794.78;5055226;28;20071;-61
2021/08/31 03:59:32;;;;;;;24.60;9.38;;;;;;;16.78;79.50;101797.09;5055712;28;20061;-60
2021/08/31 04:01:59;;;;;;;36.60;10.43;;;;;;;16.83;79.16;101794.94;5055661;28;20049;-60
2021/08/31 04:04:27;;;;;;;25.30;10.10;;;;;;;17.16;78.63;101792.44;5055910;28;20592;-60
2021/08/31 04:06:57;;;;;;;26.88;9.85;;;;;;;17.39;77.06;101804.16;5055826;28;20045;-60
2021/08/31 04:09:24;;;;;;;22.83;10.50;;;;;;;17.12;77.72;101801.78;5055717;28;20420;-61
2021/08/31 04:11:51;;;;;;;26.08;10.20;;;;;;;17.23;77.92;101797.47;5053923;28;20053;-60
2021/08/31 04:14:18;;;;;;;20.52;9.98;;;;;;;17.05;77.44;101793.91;5038414;28;20045;-61
2021/08/31 04:16:46;;;;;;;20.52;9.40;;;;;;;16.94;78.62;101787.09;5035566;28;20041;-60
2021/08/31 04:19:13;;;;;;;23.88;11.23;;;;;;;17.19;77.77;101794.53;5035454;28;20049;-60
2021/08/31 04:21:40;;;;;;;17.58;10.38;;;;;;;17.25;77.51;101796.00;5035589;28;20057;-59
2021/08/31 04:24:08;;;;;;;21.50;10.48;;;;;;;17.20;77.03;101803.72;5034384;28;20053;-61
2021/08/31 04:26:35;;;;;;;25.67;10.85;;;;;;;16.95;78.07;101807.34;5034070;28;20061;-59
2021/08/31 04:29:02;;;;;;;19.88;10.77;;;;;;;17.01;78.28;101806.06;5035757;28;20068;-61
2021/08/31 04:31:29;;;;;;;20.52;10.85;;;;;;;17.15;77.59;101813.09;5035413;28;20049;-62
2021/08/31 04:33:57;;;;;;;23.83;11.70;;;;;;;17.06;77.86;101817.00;5035500;28;20060;-61
2021/08/31 04:36:24;;;;;;;27.58;12.10;;;;;;;16.78;79.33;101811.81;5035048;28;20050;-60
2021/08/31 04:38:51;;;;;;;25.05;11.63;;;;;;;16.81;79.18;101815.91;5035188;28;20049;-60
2021/08/31 04:41:19;;;;;;;24.13;11.77;;;;;;;17.10;78.09;101812.44;5033346;28;20766;-60
2021/08/31 04:43:46;;;;;;;22.17;13.00;;;;;;;17.07;77.98;101808.31;5033826;28;20049;-60
2021/08/31 04:46:13;;;;;;;30.05;13.70;;;;;;;16.73;79.41;101813.94;5034845;28;20492;-60
2021/08/31 04:48:40;;;;;;;28.83;14.07;;;;;;;16.81;79.53;101815.91;5033421;28;20049;-60
2021/08/31 04:51:08;;;;;;;24.88;12.82;;;;;;;16.71;79.57;101813.44;5034806;28;20048;-60
2021/08/31 04:53:35;;;;;;;25.23;12.80;;;;;;;16.89;79.26;101813.09;5034683;28;20049;-60
2021/08/31 04:56:02;;;;;;;25.65;13.13;;;;;;;16.89;79.22;101815.88;5035194;28;20053;-60
2021/08/31 04:58:30;;;;;;;23.13;13.27;;;;;;;16.96;78.44;101822.94;5032556;28;20057;-59
2021/08/31 05:00:57;;;;;;;26.38;12.85;;;;;;;16.87;78.90;101822.94;5034428;28;20038;-61
2021/08/31 05:03:24;;;;;;;26.35;13.15;;;;;;;16.74;79.81;101821.13;5034637;28;20514;-64
2021/08/31 05:05:52;;;;;;;21.73;13.10;;;;;;;16.78;79.37;101819.34;5033048;28;20060;-64
2021/08/31 05:08:19;;;;;;;22.27;13.40;;;;;;;16.83;79.06;101820.00;5034613;28;20058;-65
2021/08/31 05:10:48;;;;;;;25.67;12.95;;;;;;;16.88;79.60;101813.44;5032963;28;20053;-64
2021/08/31 05:13:15;;;;;;;23.42;12.43;;;;;;;17.24;78.34;101813.88;5043206;28;20055;-65
2021/08/31 05:15:43;;;;;;;27.08;13.55;;;;;;;16.87;79.47;101822.94;5054403;28;20057;-65
2021/08/31 05:18:10;;;;;;;25.98;13.43;;;;;;;16.80;79.75;101834.56;5053153;28;20500;-65
2021/08/31 05:20:38;;;;;;;28.83;13.25;;;;;;;16.75;80.65;101823.59;5054187;28;20052;-65
2021/08/31 05:23:06;;;;;;;24.65;13.63;;;;;;;16.88;80.28;101828.19;5052935;28;20488;-63
2021/08/31 05:25:34;;;;;;;23.73;14.23;;;;;;;16.68;80.66;101831.59;5054335;28;20053;-66
2021/08/31 05:28:01;;;;;;;23.40;13.35;;;;;;;16.68;81.51;101831.59;5054259;28;20053;-66
2021/08/31 05:30:29;;;;;;;35.10;13.85;;;;;;;16.93;80.41;101831.94;5053640;28;20049;-65
2021/08/31 05:32:56;;;;;;;28.85;13.93;;;;;;;17.07;79.91;101832.59;5054023;28;20572;-64
2021/08/31 05:35:23;;;;;;;27.50;13.95;;;;;;;17.07;79.39;101832.59;5052536;28;20061;-64
2021/08/31 05:37:50;;;;;;;31.00;14.93;;;;;;;17.05;79.14;101832.88;5053937;28;20554;-64
2021/08/31 05:40:20;;;;;;;31.83;14.90;;;;;;;16.87;80.42;101834.06;5051188;28;20112;-65
2021/08/31 05:42:47;;;;;;;28.27;14.43;;;;;;;17.16;79.74;101838.94;5025139;28;20056;-66
2021/08/31 05:45:15;;;;;;;26.13;14.70;;;;;;;17.10;79.66;101837.50;5012898;28;20052;-64
2021/08/31 05:47:42;;;;;;;28.98;14.13;;;;;;;16.80;80.75;101839.31;5026856;28;20049;-64
2021/08/31 05:50:09;;;;;;;28.73;14.65;;;;;;;16.77;81.58;101846.34;5033448;28;20523;-64
2021/08/31 05:52:37;;;;;;;33.35;16.17;;;;;;;16.75;81.40;101845.06;5033671;28;20037;-66
2021/08/31 05:55:05;;;;;;;35.83;16.15;;;;;;;16.89;81.36;101851.25;5034395;28;20053;-64
2021/08/31 05:57:32;;;;;;;27.60;15.05;;;;;;;17.12;80.31;101851.91;5033653;28;20053;-64
2021/08/31 05:59:59;;;;;;;32.15;16.58;;;;;;;16.91;80.72;101854.53;5019499;28;20611;-64
2021/08/31 06:02:26;;;;;;;28.60;15.10;;;;;;;16.88;80.89;101856.00;5012698;28;20053;-65
2021/08/31 06:04:54;;;;;;;34.58;16.15;;;;;;;16.71;81.77;101852.41;5013782;28;20061;-64
2021/08/31 06:07:23;;;;;;;29.13;15.00;;;;;;;16.97;81.27;101852.38;5012957;28;20037;-64
2021/08/31 06:09:51;;;;;;;33.25;17.48;;;;;;;16.67;81.69;101854.19;5015498;28;20161;-64
2021/08/31 06:12:18;;;;;;;33.30;16.90;;;;;;;16.98;81.75;101860.41;5023343;28;20053;-65
2021/08/31 06:14:45;;;;;;;26.67;15.88;;;;;;;17.11;80.63;101855.81;5019002;28;20049;-65
2021/08/31 06:17:14;;;;;;;32.55;16.70;;;;;;;16.97;81.48;101860.75;5035654;28;20049;-64
2021/08/31 06:19:41;;;;;;;31.38;16.63;;;;;;;17.03;82.67;101857.47;5025358;28;20056;-65
2021/08/31 06:22:08;;;;;;;28.10;16.38;;;;;;;17.29;81.05;101868.56;5035686;28;20041;-64
2021/08/31 06:24:35;;;;;;;32.90;16.17;;;;;;;17.50;82.64;101861.19;5029563;28;20061;-64
2021/08/31 06:27:04;;;;;;;36.63;16.13;;;;;;;17.39;80.48;101868.22;5036182;28;20042;-65
2021/08/31 06:29:31;;;;;;;34.15;18.63;;;;;;;17.21;80.68;101859.06;5018592;28;20111;-64
2021/08/31 06:31:58;;;;;;;33.38;16.85;;;;;;;17.12;80.25;101865.81;5028836;28;20049;-66
2021/08/31 06:34:25;;;;;;;29.27;17.92;;;;;;;16.75;82.30;101870.88;5022116;28;20077;-64
2021/08/31 06:36:53;;;;;;;30.65;17.52;;;;;;;16.85;82.06;101875.31;5027671;28;20049;-65
2021/08/31 06:39:20;;;;;;;29.92;17.88;;;;;;;16.86;82.54;101868.59;5037304;28;20074;-63
2021/08/31 06:41:47;;;;;;;34.78;19.02;;;;;;;16.99;82.76;101867.63;5018533;28;20061;-64
2021/08/31 06:44:15;;;;;;;30.73;16.73;;;;;;;17.29;82.60;101874.13;5029773;28;20053;-64
2021/08/31 06:46:42;;;;;;;34.45;18.45;;;;;;;17.15;80.69;101871.56;5030586;28;20041;-64
2021/08/31 06:49:11;;;;;;;36.53;18.85;;;;;;;17.03;82.34;101871.41;5024517;28;20076;-66
2021/08/31 06:51:39;;;;;;;33.17;18.02;;;;;;;17.09;81.92;101870.06;5021135;28;20076;-65
2021/08/31 06:54:07;;;;;;;31.77;18.90;;;;;;;17.05;80.98;101866.28;5033355;28;20409;-64
2021/08/31 06:56:34;;;;;;;29.25;18.83;;;;;;;17.08;81.57;101867.63;5027864;28;20049;-64
2021/08/31 06:59:02;;;;;;;35.75;18.02;;;;;;;17.14;81.60;101869.91;5030689;28;20049;-64
2021/08/31 07:01:31;;;;;;;47.13;19.17;;;;;;;17.32;80.53;101876.25;5027240;28;20053;-64
2021/08/31 07:03:59;;;;;;;37.10;18.58;;;;;;;17.00;81.63;101872.03;5032621;28;20045;-64
2021/08/31 07:06:26;;;;;;;38.28;18.30;;;;;;;17.21;81.88;101873.00;5033844;28;20068;-64
2021/08/31 07:08:53;;;;;;;36.90;18.92;;;;;;;17.28;80.58;101878.06;5026932;28;20057;-64
2021/08/31 07:11:22;;;;;;;39.03;18.63;;;;;;;17.36;80.35;101880.03;5031330;28;20049;-64
2021/08/31 07:13:49;;;;;;;37.72;19.02;;;;;;;17.11;81.36;101881.69;5035055;28;20140;-64
2021/08/31 07:16:16;;;;;;;37.17;18.73;;;;;;;17.26;80.89;101883.97;5021312;28;20061;-63
2021/08/31 07:18:43;;;;;;;37.83;20.27;;;;;;;17.16;81.94;101875.13;5018587;28;20149;-65
2021/08/31 07:21:11;;;;;;;41.30;19.35;;;;;;;17.04;81.78;101877.75;5030067;28;20048;-64
2021/08/31 07:23:38;;;;;;;38.63;19.58;;;;;;;17.36;80.95;101883.63;5033796;28;20172;-63
2021/08/31 07:26:05;;;;;;;34.85;20.02;;;;;;;17.13;80.70;101876.63;5029678;28;20064;-65
2021/08/31 07:28:33;;;;;;;33.05;19.50;;;;;;;17.36;80.64;101880.84;5034649;28;20057;-64
2021/08/31 07:31:20;;;;;;;36.20;19.58;;;;;;;17.55;79.57;101875.75;5031426;28;20052;-64
2021/08/31 07:33:48;;;;;;;43.05;20.20;;;;;;;17.35;80.49;101879.19;5035665;28;20504;-64
2021/08/31 07:36:21;;;;;;;32.70;19.17;;;;;;;17.31;80.43;101888.56;5028941;28;20049;-64
2021/08/31 07:38:49;;;;;;;34.97;18.77;;;;;;;17.38;80.08;101884.09;5027346;28;20076;-65
2021/08/31 07:41:16;;;;;;;31.83;19.75;;;;;;;17.28;79.83;101878.88;5034815;28;20056;-64
2021/08/31 07:43:45;;;;;;;36.88;19.80;;;;;;;17.52;79.62;101878.38;5033410;28;20056;-65
2021/08/31 07:46:13;;;;;;;37.22;20.70;;;;;;;17.70;78.10;101871.59;5024536;28;20088;-66
2021/08/31 07:48:40;;;;;;;31.83;18.80;;;;;;;17.55;79.06;101895.25;5016284;28;20049;-64
2021/08/31 07:51:07;;;;;;;32.03;19.20;;;;;;;17.65;78.59;101886.53;5022898;28;20048;-65
2021/08/31 07:53:35;;;;;;;30.75;19.88;;;;;;;17.57;78.79;101886.56;5031323;28;20505;-63
2021/08/31 07:56:02;;;;;;;33.13;17.88;;;;;;;17.83;78.67;101888.13;5028081;28;20057;-68
2021/08/31 07:58:29;;;;;;;28.45;17.50;;;;;;;18.29;76.92;101886.44;5032219;28;20049;-67
2021/08/31 08:00:57;;;;;;;33.67;19.20;;;;;;;18.13;75.82;101882.56;5031934;28;20057;-67
2021/08/31 08:03:24;;;;;;;34.35;19.30;;;;;;;18.12;75.60;101890.13;5033223;28;20045;-63
2021/08/31 08:05:52;;;;;;;31.38;18.60;;;;;;;17.94;75.45;101899.69;5032176;28;20045;-64
2021/08/31 08:08:19;;;;;;;34.03;20.20;;;;;;;17.79;76.47;101900.25;5021675;28;20077;-66
2021/08/31 08:10:46;;;;;;;32.00;20.08;;;;;;;17.74;77.12;101894.88;5020050;28;20053;-64
2021/08/31 08:13:14;;;;;;;32.78;19.55;;;;;;;17.99;76.68;101899.53;5042511;28;20060;-63
2021/08/31 08:15:42;;;;;;;33.90;18.58;;;;;;;18.10;75.13;101905.56;5033177;28;20045;-64
2021/08/31 08:18:10;;;;;;;33.58;18.98;;;;;;;18.14;75.40;101912.09;5028724;28;20056;-64
2021/08/31 08:20:41;;;;;;;26.88;18.70;;;;;;;18.09;75.12;101907.53;5035095;28;20060;-64
2021/08/31 08:23:09;;;;;;;33.88;18.35;;;;;;;18.03;74.68;101910.84;5030277;28;20060;-64
2021/08/31 08:25:36;;;;;;;29.10;17.98;;;;;;;17.96;74.84;101914.13;5043362;28;20049;-64
2021/08/31 08:28:20;;;;;;;31.05;18.73;;;;;;;17.91;74.76;101914.31;5030536;28;20454;-64
2021/08/31 08:30:49;;;;;;;28.73;16.75;;;;;;;18.07;74.74;101915.41;5028313;28;20054;-65
2021/08/31 08:33:19;;;;;;;40.33;17.60;;;;;;;18.46;73.25;101912.25;5025064;28;20410;-65
2021/08/31 08:35:47;;;;;;;25.37;14.97;;;;;;;18.63;71.48;101923.34;5036963;28;20041;-63
2021/08/31 08:38:14;;;;;;;25.75;16.55;;;;;;;18.77;71.06;101915.53;5038157;28;20611;-64
2021/08/31 08:40:42;;;;;;;32.47;15.20;;;;;;;18.74;71.24;101918.97;5033016;28;20056;-64
2021/08/31 08:43:12;;;;;;;27.50;15.73;;;;;;;18.40;70.82;101913.63;5026531;28;20053;-65
2021/08/31 08:45:44;;;;;;;25.88;15.18;;;;;;;18.50;72.40;101916.00;5027944;28;20042;-64
2021/08/31 08:48:18;;;;;;;26.48;17.30;;;;;;;18.97;70.34;101913.88;5028020;28;20053;-65
2021/08/31 08:50:46;;;;;;;26.35;15.32;;;;;;;18.75;69.73;101908.63;5028213;28;20049;-64
2021/08/31 08:53:14;;;;;;;25.83;14.88;;;;;;;18.92;68.57;101919.66;5034026;28;20167;-65
2021/08/31 08:55:41;;;;;;;22.27;14.18;;;;;;;18.97;68.44;101923.06;5027428;28;20042;-64
2021/08/31 08:58:08;;;;;;;24.27;13.85;;;;;;;18.99;67.83;101919.94;5022855;28;20060;-65
2021/08/31 09:01:02;;;;;;;22.58;13.32;;;;;;;19.04;67.42;101928.09;5030626;28;20057;-66
2021/08/31 09:03:32;;;;;;;26.40;14.07;;;;;;;19.21;66.57;101918.78;5021948;28;20046;-64
2021/08/31 09:06:09;;;;;;;28.97;13.67;;;;;;;19.17;66.36;101926.19;5017416;28;20050;-64
2021/08/31 09:08:43;;;;;;;25.73;13.55;;;;;;;19.35;65.71;101919.34;5014540;28;20049;-65
2021/08/31 09:11:18;;;;;;;22.45;13.88;;;;;;;19.34;65.32;101920.47;5019656;28;20045;-64
2021/08/31 09:13:47;;;;;;;23.38;13.40;;;;;;;19.20;65.27;101929.13;5022583;28;20058;-63
2021/08/31 09:16:29;;;;;;;20.60;13.07;;;;;;;19.06;66.39;101931.38;5017642;28;20115;-65
2021/08/31 09:18:57;;;;;;;23.15;13.75;;;;;;;19.14;65.78;101926.88;5028938;28;20049;-65
2021/08/31 09:21:26;;;;;;;26.75;13.95;;;;;;;19.21;65.91;101921.56;5029580;28;20053;-65
2021/08/31 09:23:58;;;;;;;21.20;12.43;;;;;;;19.46;65.01;101918.53;5021138;28;20054;-64
2021/08/31 09:26:40;;;;;;;22.27;13.63;;;;;;;19.42;65.28;101920.38;5019176;28;20057;-65
2021/08/31 09:29:18;;;;;;;23.00;13.13;;;;;;;19.48;65.52;101930.19;5034565;28;20049;-65
2021/08/31 09:31:53;;;;;;;18.02;11.77;;;;;;;20.22;64.99;101918.84;5028634;28;20045;-64
2021/08/31 09:34:42;;;;;;;24.33;13.20;;;;;;;19.94;64.17;101920.66;5027314;28;20057;-66
2021/08/31 09:37:29;;;;;;;22.40;13.20;;;;;;;19.57;64.68;101921.72;5048963;28;20060;-66
2021/08/31 09:40:08;;;;;;;21.63;13.18;;;;;;;19.43;65.30;101922.03;5019407;28;20042;-66
2021/08/31 09:42:51;;;;;;;23.70;14.20;;;;;;;19.37;65.49;101912.22;4998208;28;20497;-66
2021/08/31 09:45:23;;;;;;;25.08;12.43;;;;;;;19.66;65.25;101911.28;5017483;28;20480;-65
2021/08/31 09:47:52;;;;;;;18.15;12.50;;;;;;;19.94;63.99;101904.69;5028046;28;20046;-66
2021/08/31 09:50:29;;;;;;;22.13;12.00;;;;;;;20.03;63.18;101916.56;5032380;28;20083;-65
2021/08/31 09:53:14;;;;;;;21.67;12.40;;;;;;;20.00;62.93;101916.47;5033728;28;20050;-65
2021/08/31 09:55:43;;;;;;;25.27;12.40;;;;;;;20.01;62.72;101916.09;5013650;28;20049;-65
2021/08/31 09:58:16;;;;;;;17.00;12.18;;;;;;;19.89;62.47;101920.88;5016714;28;20122;-65
2021/08/31 10:00:45;;;;;;;26.35;13.68;;;;;;;19.75;62.53;101920.38;5023884;28;20485;-65
2021/08/31 10:03:14;;;;;;;21.00;13.48;;;;;;;19.63;63.54;101925.94;5029379;28;20053;-65
2021/08/31 10:05:43;;;;;;;19.90;13.90;;;;;;;19.71;63.18;101916.66;5000819;28;20639;-70
2021/08/31 10:08:11;;;;;;;23.55;12.00;;;;;;;20.04;62.37;101914.59;5028091;28;20049;-70
2021/08/31 10:10:40;;;;;;;21.48;12.95;;;;;;;20.21;62.13;101919.22;5032696;28;20060;-69
2021/08/31 10:13:16;;;;;;;21.63;12.95;;;;;;;20.19;61.78;101921.53;5028865;28;20408;-70
2021/08/31 10:15:46;;;;;;;18.65;13.20;;;;;;;20.25;60.73;101922.91;4994649;28;20054;-68
2021/08/31 10:18:15;;;;;;;22.67;12.88;;;;;;;20.21;60.84;101920.00;5002855;28;20066;-69
2021/08/31 10:21:05;;;;;;;18.40;11.20;;;;;;;20.45;60.31;101930.41;5020976;28;20049;-69
2021/08/31 10:23:47;;;;;;;22.60;12.70;;;;;;;20.48;60.27;101922.13;5022501;28;20058;-69
2021/08/31 10:26:41;;;;;;;23.08;12.68;;;;;;;20.31;60.70;101918.75;5013941;28;20061;-68
2021/08/31 10:29:14;;;;;;;24.13;13.07;;;;;;;20.62;60.11;101921.75;5030389;28;20061;-66
2021/08/31 10:31:43;;;;;;;19.13;12.00;;;;;;;20.66;60.05;101917.09;5029365;28;20057;-68
2021/08/31 10:34:29;;;;;;;17.00;12.05;;;;;;;20.73;59.53;101931.31;5029689;28;20045;-68
2021/08/31 10:37:05;;;;;;;18.83;13.45;;;;;;;20.53;60.05;101933.06;5033357;28;20054;-68
2021/08/31 10:39:44;;;;;;;18.52;13.05;;;;;;;20.62;60.08;101932.94;5027696;28;20054;-67
2021/08/31 10:42:31;;;;;;;22.10;13.77;;;;;;;20.73;59.82;101928.50;5012965;28;20440;-68
2021/08/31 10:45:07;;;;;;;21.65;12.68;;;;;;;20.72;59.91;101921.25;5000193;28;20057;-69
2021/08/31 10:47:36;;;;;;;17.40;12.05;;;;;;;20.98;59.12;101921.66;5031945;28;20057;-67
2021/08/31 10:50:13;;;;;;;21.48;13.88;;;;;;;20.52;58.93;101925.03;5042693;28;20053;-67
2021/08/31 10:52:43;;;;;;;19.92;12.57;;;;;;;20.52;60.04;101925.81;5032314;28;20378;-66
2021/08/31 10:55:32;;;;;;;20.77;14.32;;;;;;;20.42;59.70;101931.91;5025714;28;20046;-67
2021/08/31 10:58:09;;;;;;;17.55;12.45;;;;;;;20.57;59.53;101925.63;5031203;28;20072;-68
2021/08/31 11:00:39;;;;;;;18.55;11.25;;;;;;;20.57;59.28;101924.78;5019583;28;20054;-67
2021/08/31 11:03:06;;;;;;;;;;;;;;;20.63;59.07;101926.16;5027384;28;20512;-66
2021/08/31 11:05:34;;;;;;;15.43;11.18;;;;;;;20.74;58.36;101916.13;5031023;28;19932;-67
2021/08/31 11:08:01;;;;;;;23.65;12.82;;;;;;;20.81;58.03;101908.75;5029024;28;20054;-66
2021/08/31 11:10:44;;;;;;;16.88;11.70;;;;;;;20.58;58.45;101923.59;5023395;28;20058;-67
2021/08/31 11:13:22;;;;;;;17.02;11.13;;;;;;;20.66;59.04;101928.28;5043581;28;20051;-66
2021/08/31 11:15:55;;;;;;;15.27;10.73;;;;;;;20.51;58.65;101926.19;5031432;28;20048;-66
2021/08/31 11:18:22;;;;;;;21.90;11.50;;;;;;;20.49;59.04;101911.72;5035285;28;20045;-66
2021/08/31 11:20:50;;;;;;;16.30;11.27;;;;;;;20.57;58.97;101936.81;5031461;28;20053;-67